Time;durP1;ratioP1;P1;durP2;ratioP2;P2;SDS_P1;SDS_P2;PMS_P1;PMS_P2;Temp;Humidity;BMP_temperature;BMP_pressure;BME280_temperature;BME280_humidity;BME280_pressure;Samples;Min_cycle;Max_cycle;Signal;HPM_P1;HPM_P2
2022/04/10 00:02:02;;;;;;;2.30;2.10;;;;;;;;;;7422170;19;20142;-86
2022/04/10 00:04:32;;;;;;;5.55;2.60;;;;;;;;;;7426302;19;20132;-87
2022/04/10 00:07:04;;;;;;;3.17;2.53;;;;;;;;;;7429123;19;20157;-86
2022/04/10 00:09:38;;;;;;;4.47;2.60;;;;;;;;;;7430354;19;20160;-87
2022/04/10 00:12:08;;;;;;;4.43;2.42;;;;;;;;;;7430799;19;20132;-86
2022/04/10 00:14:38;;;;;;;5.63;2.58;;;;;;;;;;7430663;19;20160;-87
2022/04/10 00:17:10;;;;;;;3.67;2.78;;;;;;;;;;7404038;19;20217;-87
2022/04/10 00:19:43;;;;;;;2.83;2.55;;;;;;;;;;7390644;19;20781;-89
2022/04/10 00:22:18;;;;;;;4.07;2.95;;;;;;;;;;7392032;19;20136;-87
2022/04/10 00:24:50;;;;;;;2.88;2.58;;;;;;;;;;7391695;19;20777;-88
2022/04/10 00:27:19;;;;;;;3.83;2.72;;;;;;;;;;7393516;19;20798;-87
2022/04/10 00:29:51;;;;;;;4.03;2.80;;;;;;;;;;7382586;19;20187;-86
2022/04/10 00:32:21;;;;;;;3.40;3.00;;;;;;;;;;7384205;19;20145;-86
2022/04/10 00:34:50;;;;;;;7.00;2.75;;;;;;;;;;7383025;19;20150;-86
2022/04/10 00:37:25;;;;;;;3.55;2.63;;;;;;;;;;7377691;19;20156;-86
2022/04/10 00:39:54;;;;;;;4.88;2.85;;;;;;;;;;7376020;19;20150;-87
2022/04/10 00:42:24;;;;;;;5.07;2.90;;;;;;;;;;7378654;19;21084;-87
2022/04/10 00:44:56;;;;;;;3.88;2.78;;;;;;;;;;7375293;19;20667;-86
2022/04/10 00:47:26;;;;;;;5.00;3.13;;;;;;;;;;7377682;19;20170;-86
2022/04/10 00:49:56;;;;;;;4.13;3.20;;;;;;;;;;7375357;19;20899;-87
2022/04/10 00:52:31;;;;;;;4.10;2.60;;;;;;;;;;7378931;19;20241;-87
2022/04/10 00:55:06;;;;;;;5.28;2.88;;;;;;;;;;7377518;19;20251;-86
2022/04/10 00:57:35;;;;;;;5.88;2.72;;;;;;;;;;7378628;19;20178;-86
2022/04/10 01:00:06;;;;;;;4.10;2.42;;;;;;;;;;7376817;19;20164;-86
2022/04/10 01:02:35;;;;;;;3.40;2.25;;;;;;;;;;7375932;19;20139;-87
2022/04/10 01:05:05;;;;;;;3.30;2.30;;;;;;;;;;7377205;19;20151;-87
2022/04/10 01:07:38;;;;;;;3.85;3.33;;;;;;;;;;7376653;19;20150;-87
2022/04/10 01:10:10;;;;;;;2.30;2.10;;;;;;;;;;7372279;19;20150;-86
2022/04/10 01:12:40;;;;;;;3.63;2.08;;;;;;;;;;7376873;19;20128;-87
2022/04/10 01:15:16;;;;;;;2.30;2.10;;;;;;;;;;7372926;19;20147;-87
2022/04/10 01:17:48;;;;;;;3.05;2.53;;;;;;;;;;7376657;19;20210;-87
2022/04/10 01:20:19;;;;;;;4.43;2.40;;;;;;;;;;7377963;19;20170;-87
2022/04/10 01:22:54;;;;;;;4.78;3.05;;;;;;;;;;7376145;19;21004;-88
2022/04/10 01:25:42;;;;;;;3.10;2.25;;;;;;;;;;7370808;19;20243;-87
2022/04/10 01:28:13;;;;;;;4.70;2.50;;;;;;;;;;7372043;19;20769;-87
2022/04/10 01:30:45;;;;;;;3.92;2.38;;;;;;;;;;7370806;19;20175;-87
2022/04/10 01:33:15;;;;;;;5.78;2.50;;;;;;;;;;7371111;19;20142;-86
2022/04/10 01:35:47;;;;;;;7.13;2.65;;;;;;;;;;7366811;19;20146;-86
2022/04/10 01:38:23;;;;;;;7.35;3.05;;;;;;;;;;7372785;19;20164;-87
2022/04/10 01:40:55;;;;;;;5.05;2.22;;;;;;;;;;7369916;19;22035;-87
2022/04/10 01:43:27;;;;;;;3.65;2.42;;;;;;;;;;7368159;19;20132;-87
2022/04/10 01:45:57;;;;;;;3.50;2.63;;;;;;;;;;7367993;19;20140;-86
2022/04/10 01:48:52;;;;;;;3.53;2.60;;;;;;;;;;7376367;19;20158;-86
2022/04/10 01:51:22;;;;;;;2.60;2.40;;;;;;;;;;7372358;19;20140;-86
2022/04/10 01:53:54;;;;;;;4.90;2.60;;;;;;;;;;7362956;19;20139;-87
2022/04/10 01:56:25;;;;;;;3.80;2.35;;;;;;;;;;7368464;19;20143;-90
2022/04/10 01:58:57;;;;;;;2.83;2.30;;;;;;;;;;7377255;19;20149;-89
2022/04/10 02:01:46;;;;;;;2.97;2.50;;;;;;;;;;7373141;19;20233;-86
2022/04/10 02:04:19;;;;;;;5.05;2.85;;;;;;;;;;7364785;19;20176;-87
2022/04/10 02:06:51;;;;;;;5.72;2.55;;;;;;;;;;7365916;19;20716;-87
2022/04/10 02:09:23;;;;;;;3.50;2.33;;;;;;;;;;7370588;19;20165;-88
2022/04/10 02:11:56;;;;;;;3.85;2.65;;;;;;;;;;7368251;19;20143;-88
2022/04/10 02:14:30;;;;;;;6.53;2.90;;;;;;;;;;7367839;19;21001;-87
2022/04/10 02:16:59;;;;;;;6.25;3.08;;;;;;;;;;7377271;19;20144;-88
2022/04/10 02:19:32;;;;;;;5.28;3.00;;;;;;;;;;7373125;19;20156;-88
2022/04/10 02:22:02;;;;;;;3.63;2.50;;;;;;;;;;7365485;19;20144;-86
2022/04/10 02:24:34;;;;;;;3.22;2.20;;;;;;;;;;7365576;19;20139;-85
2022/04/10 02:27:06;;;;;;;2.95;2.65;;;;;;;;;;7364931;19;20142;-88
2022/04/10 02:29:36;;;;;;;4.85;2.60;;;;;;;;;;7365191;19;20635;-87
2022/04/10 02:32:06;;;;;;;6.55;2.65;;;;;;;;;;7362659;19;20146;-87
2022/04/10 02:34:38;;;;;;;3.35;2.63;;;;;;;;;;7368207;19;20207;-89
2022/04/10 02:37:08;;;;;;;6.32;2.95;;;;;;;;;;7367795;19;20177;-87
2022/04/10 02:39:41;;;;;;;4.28;3.03;;;;;;;;;;7365597;19;20162;-88
2022/04/10 02:42:13;;;;;;;3.00;2.10;;;;;;;;;;7367064;19;20712;-89
2022/04/10 02:44:45;;;;;;;4.70;2.80;;;;;;;;;;7372708;19;20154;-87
2022/04/10 02:47:14;;;;;;;4.75;3.00;;;;;;;;;;7370778;19;20144;-87
2022/04/10 02:49:44;;;;;;;5.07;2.75;;;;;;;;;;7367710;19;20139;-87
2022/04/10 02:52:15;;;;;;;3.50;2.50;;;;;;;;;;7373842;19;20215;-84
2022/04/10 02:54:47;;;;;;;3.97;3.63;;;;;;;;;;7405210;19;20139;-81
2022/04/10 02:57:35;;;;;;;5.88;2.60;;;;;;;;;;7403282;19;20127;-81
2022/04/10 03:00:24;;;;;;;5.10;2.70;;;;;;;;;;7398057;19;20148;-79
2022/04/10 03:03:12;;;;;;;7.43;3.55;;;;;;;;;;7403360;19;20139;-79
2022/04/10 03:06:00;;;;;;;2.75;2.25;;;;;;;;;;7403864;19;20181;-78
2022/04/10 03:08:48;;;;;;;3.13;2.72;;;;;;;;;;7406278;19;20145;-79
2022/04/10 03:11:39;;;;;;;3.65;2.80;;;;;;;;;;7405095;19;20143;-78
2022/04/10 03:14:27;;;;;;;4.22;2.85;;;;;;;;;;7400328;19;20139;-76
2022/04/10 03:17:16;;;;;;;7.22;2.80;;;;;;;;;;7403086;19;20131;-78
2022/04/10 03:20:08;;;;;;;3.08;2.30;;;;;;;;;;7404180;19;20143;-81
2022/04/10 03:22:57;;;;;;;5.45;3.50;;;;;;;;;;7408673;19;20136;-79
2022/04/10 03:25:46;;;;;;;4.38;2.67;;;;;;;;;;7408540;19;20144;-79
2022/04/10 03:28:37;;;;;;;3.65;2.90;;;;;;;;;;7411943;19;20139;-78
2022/04/10 03:31:25;;;;;;;6.10;3.40;;;;;;;;;;7387187;19;20886;-77
2022/04/10 03:34:15;;;;;;;5.03;3.28;;;;;;;;;;7385329;19;20136;-77
2022/04/10 03:37:04;;;;;;;8.52;2.95;;;;;;;;;;7384873;19;20140;-77
2022/04/10 03:39:53;;;;;;;7.57;3.38;;;;;;;;;;7382282;19;20607;-79
2022/04/10 03:42:42;;;;;;;3.10;2.80;;;;;;;;;;7385131;19;20147;-82
2022/04/10 03:45:35;;;;;;;3.63;2.95;;;;;;;;;;7381123;19;20199;-79
2022/04/10 03:48:23;;;;;;;5.03;3.22;;;;;;;;;;7380633;19;20224;-80
2022/04/10 03:51:12;;;;;;;5.45;3.00;;;;;;;;;;7379613;19;20144;-78
2022/04/10 03:54:00;;;;;;;3.47;2.85;;;;;;;;;;7377326;19;20915;-80
2022/04/10 03:56:49;;;;;;;4.88;3.80;;;;;;;;;;7380306;19;20179;-80
2022/04/10 03:59:37;;;;;;;4.45;3.78;;;;;;;;;;7379235;19;20143;-80
2022/04/10 04:02:28;;;;;;;4.68;3.40;;;;;;;;;;7379760;19;20687;-79
2022/04/10 04:05:16;;;;;;;5.80;3.80;;;;;;;;;;7377181;19;20147;-79
2022/04/10 04:08:07;;;;;;;4.80;3.72;;;;;;;;;;7379150;19;20140;-79
2022/04/10 04:10:56;;;;;;;5.78;3.97;;;;;;;;;;7380007;19;20140;-79
2022/04/10 04:13:45;;;;;;;5.57;4.03;;;;;;;;;;7378771;19;20143;-80
2022/04/10 04:16:34;;;;;;;5.05;3.97;;;;;;;;;;7377570;19;20141;-79
2022/04/10 04:19:25;;;;;;;9.40;4.60;;;;;;;;;;7380591;19;20154;-80
2022/04/10 04:22:13;;;;;;;4.38;3.85;;;;;;;;;;7377349;19;20661;-80
2022/04/10 04:25:05;;;;;;;4.22;3.80;;;;;;;;;;7377961;19;20143;-79
2022/04/10 04:27:54;;;;;;;4.72;4.22;;;;;;;;;;7357854;19;20136;-78
2022/04/10 04:30:42;;;;;;;4.90;4.40;;;;;;;;;;7363276;19;20175;-80
2022/04/10 04:33:31;;;;;;;5.47;4.60;;;;;;;;;;7355342;19;20222;-80
2022/04/10 04:36:21;;;;;;;4.10;3.70;;;;;;;;;;7363516;19;20652;-77
2022/04/10 04:39:10;;;;;;;6.28;4.78;;;;;;;;;;7352909;19;21035;-77
2022/04/10 04:42:00;;;;;;;13.02;5.07;;;;;;;;;;7363124;19;20214;-79
2022/04/10 04:44:48;;;;;;;10.65;5.20;;;;;;;;;;7371587;19;20761;-78
2022/04/10 04:47:37;;;;;;;4.63;3.70;;;;;;;;;;7361305;19;20147;-78
2022/04/10 04:50:26;;;;;;;9.23;4.80;;;;;;;;;;7366739;19;20171;-78
2022/04/10 04:53:19;;;;;;;5.03;4.32;;;;;;;;;;7346867;19;20199;-79
2022/04/10 04:56:07;;;;;;;5.25;4.70;;;;;;;;;;7358865;19;20140;-78
2022/04/10 04:58:59;;;;;;;5.05;4.25;;;;;;;;;;7359978;19;20139;-77
2022/04/10 05:01:48;;;;;;;5.65;5.05;;;;;;;;;;7354395;19;20154;-78
2022/04/10 05:04:37;;;;;;;7.07;4.70;;;;;;;;;;7357911;19;20143;-77
2022/04/10 05:07:26;;;;;;;4.72;4.32;;;;;;;;;;7375637;19;20144;-77
2022/04/10 05:10:19;;;;;;;7.82;4.70;;;;;;;;;;7363230;19;20136;-77
2022/04/10 05:13:10;;;;;;;5.78;4.20;;;;;;;;;;7355074;19;20140;-78
2022/04/10 05:15:59;;;;;;;4.47;4.07;;;;;;;;;;7349197;19;20147;-77
2022/04/10 05:18:53;;;;;;;4.88;4.38;;;;;;;;;;7353221;19;20164;-83
2022/04/10 05:21:45;;;;;;;5.68;4.70;;;;;;;;;;7352835;19;20632;-83
2022/04/10 05:24:34;;;;;;;5.95;4.40;;;;;;;;;;7360907;19;20147;-85
2022/04/10 05:27:29;;;;;;;8.98;4.60;;;;;;;;;;7375179;19;20135;-84
2022/04/10 05:30:18;;;;;;;6.15;4.78;;;;;;;;;;7376759;19;20216;-88
2022/04/10 05:33:10;;;;;;;6.80;4.05;;;;;;;;;;7376701;19;20863;-86
2022/04/10 05:35:59;;;;;;;5.30;4.25;;;;;;;;;;7376201;19;20169;-85
2022/04/10 05:38:48;;;;;;;6.38;4.07;;;;;;;;;;7375935;19;20146;-83
2022/04/10 05:41:40;;;;;;;4.93;4.10;;;;;;;;;;7377310;19;20164;-88
2022/04/10 05:44:37;;;;;;;4.78;3.65;;;;;;;;;;7380130;19;20145;-88
2022/04/10 05:47:26;;;;;;;5.13;4.15;;;;;;;;;;7380525;19;20158;-88
2022/04/10 05:50:15;;;;;;;5.07;3.80;;;;;;;;;;7380969;19;20764;-93
2022/04/10 05:53:05;;;;;;;5.03;4.20;;;;;;;;;;7392317;19;20152;-96
2022/04/10 05:55:57;;;;;;;5.45;4.03;;;;;;;;;;7398089;19;20214;-93
2022/04/10 05:58:49;;;;;;;4.60;4.20;;;;;;;;;;7406435;19;20139;-82
2022/04/10 06:01:40;;;;;;;4.20;3.80;;;;;;;;;;7356281;19;20143;-82
2022/04/10 06:04:28;;;;;;;4.18;3.78;;;;;;;;;;7348582;19;20147;-82
2022/04/10 06:07:17;;;;;;;4.80;3.45;;;;;;;;;;7343785;19;21145;-82
2022/04/10 06:10:05;;;;;;;4.60;3.80;;;;;;;;;;7347819;19;20140;-82
2022/04/10 06:12:53;;;;;;;4.53;3.58;;;;;;;;;;7350430;19;20991;-83
2022/04/10 06:15:25;;;;;;;9.20;4.72;;;;;;;;;;7372419;19;20206;-83
2022/04/10 06:18:04;;;;;;;4.20;3.80;;;;;;;;;;7344585;19;20171;-83
2022/04/10 06:20:33;;;;;;;4.15;3.75;;;;;;;;;;7356316;19;20176;-83
2022/04/10 06:23:05;;;;;;;4.43;3.65;;;;;;;;;;7360897;19;20136;-78
2022/04/10 06:25:37;;;;;;;6.70;4.30;;;;;;;;;;7371484;19;20142;-80
2022/04/10 06:28:10;;;;;;;6.32;3.67;;;;;;;;;;7359710;19;20143;-83
2022/04/10 06:30:45;;;;;;;5.22;4.03;;;;;;;;;;7338761;19;20186;-86
2022/04/10 06:33:24;;;;;;;4.20;3.80;;;;;;;;;;7320453;19;20154;-83
2022/04/10 06:35:57;;;;;;;5.07;3.70;;;;;;;;;;7329529;19;20402;-79
2022/04/10 06:38:28;;;;;;;6.10;3.92;;;;;;;;;;7331529;19;20135;-78
2022/04/10 06:41:06;;;;;;;4.63;4.20;;;;;;;;;;7354553;19;20512;-87
2022/04/10 06:43:38;;;;;;;8.27;4.00;;;;;;;;;;7359322;19;20583;-80
2022/04/10 06:46:28;;;;;;;9.30;3.80;;;;;;;;;;7359808;19;20140;-82
2022/04/10 06:49:12;;;;;;;6.40;3.55;;;;;;;;;;7333661;19;20171;-81
2022/04/10 06:51:46;;;;;;;4.18;3.50;;;;;;;;;;7352036;19;20143;-85
2022/04/10 06:54:26;;;;;;;6.13;4.03;;;;;;;;;;7364621;19;20127;-82
2022/04/10 06:56:56;;;;;;;6.93;3.88;;;;;;;;;;7377930;19;20132;-81
2022/04/10 06:59:26;;;;;;;5.80;3.43;;;;;;;;;;7378889;19;20538;-81
2022/04/10 07:01:57;;;;;;;4.18;3.25;;;;;;;;;;7389947;19;20872;-84
2022/04/10 07:04:31;;;;;;;4.20;3.67;;;;;;;;;;7399424;19;20151;-79
2022/04/10 07:07:05;;;;;;;3.93;3.30;;;;;;;;;;7418004;19;21006;-85
2022/04/10 07:09:35;;;;;;;4.28;3.50;;;;;;;;;;7425787;19;20415;-84
2022/04/10 07:12:07;;;;;;;4.07;3.67;;;;;;;;;;7399872;19;20541;-86
2022/04/10 07:14:42;;;;;;;3.37;3.07;;;;;;;;;;7394797;19;20419;-83
2022/04/10 07:17:14;;;;;;;5.60;3.88;;;;;;;;;;7388668;19;20438;-86
2022/04/10 07:19:47;;;;;;;4.93;3.97;;;;;;;;;;7387657;19;20839;-87
2022/04/10 07:25:07;;;;;;;3.93;3.40;;;;;;;;;;7377215;19;21185;-84
2022/04/10 07:27:38;;;;;;;3.97;3.20;;;;;;;;;;7377707;19;20484;-85
2022/04/10 07:30:24;;;;;;;3.47;2.50;;;;;;;;;;7370629;19;20553;-86
2022/04/10 07:32:54;;;;;;;4.00;3.43;;;;;;;;;;7378278;19;21074;-89
2022/04/10 07:35:29;;;;;;;3.10;2.80;;;;;;;;;;7372093;19;20476;-82
2022/04/10 07:38:10;;;;;;;6.03;3.40;;;;;;;;;;7370654;19;20980;-85
2022/04/10 07:40:40;;;;;;;4.10;3.23;;;;;;;;;;7381313;19;20368;-82
2022/04/10 07:43:15;;;;;;;3.37;3.07;;;;;;;;;;7378087;19;20403;-77
2022/04/10 07:48:34;;;;;;;10.07;3.80;;;;;;;;;;7364412;19;20156;-82
2022/04/10 07:51:30;;;;;;;4.70;3.30;;;;;;;;;;7369855;19;20383;-78
2022/04/10 07:54:24;;;;;;;4.40;3.00;;;;;;;;;;7360798;19;20437;-78
2022/04/10 07:56:56;;;;;;;3.97;3.53;;;;;;;;;;7366528;19;20417;-79
2022/04/10 07:59:39;;;;;;;7.03;3.37;;;;;;;;;;7367959;19;21261;-78
2022/04/10 08:02:10;;;;;;;3.70;3.37;;;;;;;;;;7369062;19;20404;-80
2022/04/10 08:04:43;;;;;;;4.87;3.57;;;;;;;;;;7377339;19;21084;-75
2022/04/10 08:07:25;;;;;;;4.03;3.63;;;;;;;;;;7377782;19;20417;-81
2022/04/10 08:10:01;;;;;;;5.37;3.60;;;;;;;;;;7352906;19;20412;-82
2022/04/10 08:12:30;;;;;;;3.78;3.38;;;;;;;;;;7360462;19;20399;-80
2022/04/10 08:15:00;;;;;;;4.17;3.40;;;;;;;;;;7364473;19;20154;-79
2022/04/10 08:17:35;;;;;;;4.17;2.83;;;;;;;;;;7378813;19;20422;-80
2022/04/10 08:20:06;;;;;;;4.10;3.40;;;;;;;;;;7369932;19;20987;-76
2022/04/10 08:22:39;;;;;;;3.30;2.97;;;;;;;;;;7367927;19;20788;-78
2022/04/10 08:25:12;;;;;;;7.17;3.53;;;;;;;;;;7368267;19;21571;-76
2022/04/10 08:27:44;;;;;;;4.40;3.50;;;;;;;;;;7358811;19;20400;-81
2022/04/10 08:30:16;;;;;;;5.07;3.57;;;;;;;;;;7344447;19;20470;-79
2022/04/10 08:32:47;;;;;;;3.83;3.43;;;;;;;;;;7365790;19;20441;-76
2022/04/10 08:35:34;;;;;;;4.47;3.87;;;;;;;;;;7356008;19;20475;-78
2022/04/10 08:38:07;;;;;;;6.20;3.77;;;;;;;;;;7352891;19;20433;-75
2022/04/10 08:40:36;;;;;;;4.10;3.10;;;;;;;;;;7346077;19;20517;-77
2022/04/10 08:43:11;;;;;;;5.23;3.37;;;;;;;;;;7355815;19;20550;-82
2022/04/10 08:45:41;;;;;;;5.83;4.37;;;;;;;;;;7364991;19;20424;-78
2022/04/10 08:48:11;;;;;;;4.37;3.27;;;;;;;;;;7371165;19;20491;-81
2022/04/10 08:50:41;;;;;;;4.83;3.33;;;;;;;;;;7377833;19;20400;-79
2022/04/10 08:53:13;;;;;;;6.37;3.87;;;;;;;;;;7367581;19;20408;-80
2022/04/10 08:55:45;;;;;;;4.40;3.30;;;;;;;;;;7370672;19;20421;-77
2022/04/10 08:58:15;;;;;;;4.00;3.40;;;;;;;;;;7369448;19;20503;-76
2022/04/10 09:00:45;;;;;;;5.50;3.70;;;;;;;;;;7349493;19;20406;-78
2022/04/10 09:03:16;;;;;;;6.97;4.95;;;;;;;;;;7360122;19;20411;-88
2022/04/10 09:06:04;;;;;;;5.47;3.90;;;;;;;;;;7382387;19;21004;-80
2022/04/10 09:08:38;;;;;;;3.03;2.73;;;;;;;;;;7373575;19;20254;-80
2022/04/10 09:11:09;;;;;;;5.20;3.03;;;;;;;;;;7374834;19;20412;-77
2022/04/10 09:13:46;;;;;;;3.27;2.97;;;;;;;;;;7371112;19;20795;-78
2022/04/10 09:16:17;;;;;;;4.97;3.50;;;;;;;;;;7378893;19;20881;-79
2022/04/10 09:18:51;;;;;;;6.53;3.27;;;;;;;;;;7376948;19;20439;-80
2022/04/10 09:21:29;;;;;;;5.60;3.65;;;;;;;;;;7357000;19;20406;-77
2022/04/10 09:24:05;;;;;;;4.23;3.27;;;;;;;;;;7351353;19;20633;-77
2022/04/10 09:26:57;;;;;;;4.00;3.40;;;;;;;;;;7348860;19;20444;-78
2022/04/10 09:29:27;;;;;;;4.30;3.60;;;;;;;;;;7365759;19;20531;-77
2022/04/10 09:31:57;;;;;;;6.03;3.20;;;;;;;;;;7348193;19;21365;-77
2022/04/10 09:34:26;;;;;;;4.73;3.40;;;;;;;;;;7359586;19;20408;-77
2022/04/10 09:37:03;;;;;;;3.93;3.03;;;;;;;;;;7345425;19;20393;-75
2022/04/10 09:39:40;;;;;;;4.47;3.20;;;;;;;;;;7345804;19;20421;-76
2022/04/10 09:42:14;;;;;;;4.43;3.10;;;;;;;;;;7350016;19;20403;-76
2022/04/10 09:44:43;;;;;;;4.07;3.43;;;;;;;;;;7342699;19;20400;-76
2022/04/10 09:47:15;;;;;;;7.07;4.70;;;;;;;;;;7347291;19;21050;-76
2022/04/10 09:49:48;;;;;;;4.07;3.67;;;;;;;;;;7342656;19;20527;-78
2022/04/10 09:52:20;;;;;;;5.93;3.90;;;;;;;;;;7341052;19;20412;-75
2022/04/10 09:54:57;;;;;;;3.93;2.87;;;;;;;;;;7357908;19;20400;-75
2022/04/10 09:57:28;;;;;;;4.50;3.30;;;;;;;;;;7361322;19;20403;-75
2022/04/10 10:00:01;;;;;;;4.93;3.30;;;;;;;;;;7345605;19;20404;-76
2022/04/10 10:02:41;;;;;;;5.70;3.20;;;;;;;;;;7357832;19;20419;-75
2022/04/10 10:05:16;;;;;;;4.40;2.57;;;;;;;;;;7353566;19;21203;-74
2022/04/10 10:07:49;;;;;;;2.93;2.50;;;;;;;;;;7365914;19;20415;-78
2022/04/10 10:10:25;;;;;;;3.43;2.97;;;;;;;;;;7360497;19;20411;-77
2022/04/10 10:12:57;;;;;;;3.20;2.50;;;;;;;;;;7346071;19;20411;-77
2022/04/10 10:15:52;;;;;;;3.40;2.70;;;;;;;;;;7360527;19;20412;-77
2022/04/10 10:18:25;;;;;;;4.17;2.10;;;;;;;;;;7361628;19;20947;-77
2022/04/10 10:20:59;;;;;;;4.90;3.13;;;;;;;;;;7374633;19;20414;-77
2022/04/10 10:23:31;;;;;;;3.80;3.10;;;;;;;;;;7332765;19;20409;-77
2022/04/10 10:26:12;;;;;;;3.53;2.23;;;;;;;;;;7364160;19;20383;-74
2022/04/10 10:28:56;;;;;;;3.53;2.30;;;;;;;;;;7366968;19;20399;-73
2022/04/10 10:31:40;;;;;;;4.33;2.63;;;;;;;;;;7365246;19;20440;-74
2022/04/10 10:34:10;;;;;;;3.33;2.60;;;;;;;;;;7367962;19;20480;-73
2022/04/10 10:36:42;;;;;;;3.50;2.60;;;;;;;;;;7365969;19;20412;-74
2022/04/10 10:39:14;;;;;;;4.83;2.90;;;;;;;;;;7406392;19;20393;-83
2022/04/10 10:41:53;;;;;;;6.80;3.00;;;;;;;;;;7386042;19;20766;-83
2022/04/10 10:44:37;;;;;;;4.70;3.53;;;;;;;;;;7389714;19;20383;-83
2022/04/10 10:47:07;;;;;;;4.67;3.53;;;;;;;;;;7387378;19;20430;-83
2022/04/10 10:49:46;;;;;;;5.23;3.57;;;;;;;;;;7387296;19;20368;-83
2022/04/10 10:52:18;;;;;;;3.97;3.37;;;;;;;;;;7387668;19;20372;-81
2022/04/10 10:54:48;;;;;;;4.80;4.00;;;;;;;;;;7387301;19;20422;-81
2022/04/10 10:57:34;;;;;;;3.80;2.90;;;;;;;;;;7379292;19;20523;-82
2022/04/10 11:00:12;;;;;;;4.60;2.93;;;;;;;;;;7376431;19;20400;-82
2022/04/10 11:02:48;;;;;;;4.73;3.93;;;;;;;;;;7376424;19;21157;-84
2022/04/10 11:05:31;;;;;;;5.10;3.90;;;;;;;;;;7373527;19;20386;-84
2022/04/10 11:08:06;;;;;;;4.53;3.60;;;;;;;;;;7371404;19;20396;-82
2022/04/10 11:10:38;;;;;;;3.20;2.70;;;;;;;;;;7365308;19;20931;-81
2022/04/10 11:13:11;;;;;;;9.37;3.33;;;;;;;;;;7370356;19;20520;-81
2022/04/10 11:15:54;;;;;;;3.23;2.90;;;;;;;;;;7372405;19;20395;-83
2022/04/10 11:18:35;;;;;;;3.60;2.60;;;;;;;;;;7374056;19;20441;-83
2022/04/10 11:21:13;;;;;;;3.17;2.57;;;;;;;;;;7373038;19;20436;-78
2022/04/10 11:23:46;;;;;;;8.40;5.20;;;;;;;;;;7367094;19;20407;-78
2022/04/10 11:26:19;;;;;;;4.93;2.60;;;;;;;;;;7368898;19;20372;-78
2022/04/10 11:28:58;;;;;;;4.20;2.60;;;;;;;;;;7365830;19;20394;-78
2022/04/10 11:31:35;;;;;;;3.47;2.30;;;;;;;;;;7369363;19;20439;-80
2022/04/10 11:34:14;;;;;;;5.80;3.47;;;;;;;;;;7365555;19;20395;-79
2022/04/10 11:36:54;;;;;;;5.97;3.17;;;;;;;;;;7372676;19;20163;-79
2022/04/10 11:39:26;;;;;;;5.13;2.80;;;;;;;;;;7372663;19;20939;-83
2022/04/10 11:41:56;;;;;;;4.70;2.90;;;;;;;;;;7378609;19;20381;-88
2022/04/10 11:44:29;;;;;;;3.50;3.00;;;;;;;;;;7372785;19;20802;-90
2022/04/10 11:47:05;;;;;;;3.33;2.63;;;;;;;;;;7379212;19;20446;-91
2022/04/10 11:49:37;;;;;;;2.60;2.33;;;;;;;;;;7375522;19;20434;-86
2022/04/10 11:52:07;;;;;;;4.10;2.63;;;;;;;;;;7379027;19;20423;-85
2022/04/10 11:54:39;;;;;;;4.27;3.03;;;;;;;;;;7377566;19;20932;-86
2022/04/10 11:57:12;;;;;;;3.87;2.77;;;;;;;;;;7380673;19;20404;-85
2022/04/10 11:59:45;;;;;;;3.63;2.63;;;;;;;;;;7367116;19;20415;-88
2022/04/10 12:02:17;;;;;;;2.80;2.60;;;;;;;;;;7369314;19;20435;-85
2022/04/10 12:04:49;;;;;;;4.23;2.23;;;;;;;;;;7374618;19;20414;-86
2022/04/10 12:07:23;;;;;;;3.20;2.90;;;;;;;;;;7370992;19;20421;-86
2022/04/10 12:09:56;;;;;;;3.37;3.00;;;;;;;;;;7378962;19;20424;-85
2022/04/10 12:12:37;;;;;;;3.97;3.03;;;;;;;;;;7374038;19;20412;-86
2022/04/10 12:15:20;;;;;;;4.10;3.17;;;;;;;;;;7371503;19;20955;-86
2022/04/10 12:17:49;;;;;;;7.10;3.60;;;;;;;;;;7368890;19;20755;-86
2022/04/10 12:20:19;;;;;;;3.47;3.17;;;;;;;;;;7370386;19;20405;-90
2022/04/10 12:22:51;;;;;;;3.77;2.83;;;;;;;;;;7374808;19;20150;-87
2022/04/10 12:25:20;;;;;;;5.90;3.60;;;;;;;;;;7379309;19;20398;-88
2022/04/10 12:27:52;;;;;;;4.90;3.50;;;;;;;;;;7374700;19;20143;-86
2022/04/10 12:30:24;;;;;;;6.70;3.70;;;;;;;;;;7373908;19;20467;-87
2022/04/10 12:32:56;;;;;;;10.47;3.77;;;;;;;;;;7375029;19;20886;-88
2022/04/10 12:35:28;;;;;;;7.70;3.20;;;;;;;;;;7378797;19;20455;-87
2022/04/10 12:38:04;;;;;;;8.23;3.60;;;;;;;;;;7375632;19;20408;-84
2022/04/10 12:40:35;;;;;;;4.60;3.10;;;;;;;;;;7374369;19;20384;-78
2022/04/10 12:43:09;;;;;;;3.97;3.10;;;;;;;;;;7374201;19;20411;-86
2022/04/10 12:45:42;;;;;;;5.97;3.90;;;;;;;;;;7375379;19;20392;-86
2022/04/10 12:48:24;;;;;;;10.43;3.40;;;;;;;;;;7376532;19;20420;-83
2022/04/10 12:51:07;;;;;;;6.30;3.60;;;;;;;;;;7375753;19;20904;-87
2022/04/10 12:53:37;;;;;;;4.43;3.23;;;;;;;;;;7371895;19;20399;-82
2022/04/10 12:56:07;;;;;;;4.40;3.20;;;;;;;;;;7370847;19;21090;-84
2022/04/10 12:58:48;;;;;;;5.23;3.10;;;;;;;;;;7372742;19;20423;-84
2022/04/10 13:01:30;;;;;;;7.30;3.03;;;;;;;;;;7375937;19;20408;-84
2022/04/10 13:04:02;;;;;;;4.17;2.77;;;;;;;;;;7374420;19;20424;-89
2022/04/10 13:06:47;;;;;;;3.87;2.67;;;;;;;;;;7375236;19;20420;-84
2022/04/10 13:09:18;;;;;;;3.23;2.77;;;;;;;;;;7367186;19;20960;-80
2022/04/10 13:11:51;;;;;;;4.32;2.88;;;;;;;;;;7371696;19;21422;-82
2022/04/10 13:14:25;;;;;;;3.30;2.33;;;;;;;;;;7370310;19;20203;-85
2022/04/10 13:17:06;;;;;;;3.83;2.47;;;;;;;;;;7344805;19;20481;-81
2022/04/10 13:19:37;;;;;;;2.80;2.50;;;;;;;;;;7373308;19;20423;-88
2022/04/10 13:22:06;;;;;;;5.00;3.77;;;;;;;;;;7373117;19;20538;-85
2022/04/10 13:24:41;;;;;;;3.10;2.37;;;;;;;;;;7368365;19;20424;-89
2022/04/10 13:27:17;;;;;;;3.10;2.63;;;;;;;;;;7379627;19;20816;-92
2022/04/10 13:29:49;;;;;;;3.25;2.70;;;;;;;;;;7355720;19;20383;-80
2022/04/10 13:32:21;;;;;;;3.37;3.07;;;;;;;;;;7371801;19;20147;-79
2022/04/10 13:34:57;;;;;;;5.43;4.03;;;;;;;;;;7365816;19;20408;-78
2022/04/10 13:37:29;;;;;;;3.60;3.27;;;;;;;;;;7371455;19;20404;-78
2022/04/10 13:39:59;;;;;;;4.60;2.80;;;;;;;;;;7354292;19;20420;-79
2022/04/10 13:42:31;;;;;;;3.33;2.80;;;;;;;;;;7366044;19;20509;-79
2022/04/10 13:45:02;;;;;;;3.83;2.50;;;;;;;;;;7360210;19;20408;-79
2022/04/10 13:47:34;;;;;;;6.43;3.03;;;;;;;;;;7373372;19;20384;-78
2022/04/10 13:50:04;;;;;;;5.80;2.97;;;;;;;;;;7358128;19;20434;-77
2022/04/10 13:52:34;;;;;;;4.67;3.20;;;;;;;;;;7358524;19;20415;-76
2022/04/10 13:55:08;;;;;;;4.20;2.83;;;;;;;;;;7369062;19;21469;-77
2022/04/10 13:57:40;;;;;;;3.50;3.07;;;;;;;;;;7375743;19;20392;-76
2022/04/10 14:00:11;;;;;;;3.30;2.53;;;;;;;;;;7373939;19;20428;-79
2022/04/10 14:02:46;;;;;;;4.50;2.70;;;;;;;;;;7374668;19;20419;-78
2022/04/10 14:05:16;;;;;;;4.67;2.57;;;;;;;;;;7369584;19;20408;-79
2022/04/10 14:07:45;;;;;;;3.70;3.13;;;;;;;;;;7378031;19;20435;-79
2022/04/10 14:10:17;;;;;;;4.20;2.90;;;;;;;;;;7375314;19;21031;-80
2022/04/10 14:12:47;;;;;;;2.80;2.50;;;;;;;;;;7375128;19;20400;-78
2022/04/10 14:15:19;;;;;;;3.67;2.70;;;;;;;;;;7375934;19;20399;-79
2022/04/10 14:17:56;;;;;;;2.83;2.53;;;;;;;;;;7376148;19;20392;-79
2022/04/10 14:20:25;;;;;;;5.30;2.70;;;;;;;;;;7375005;19;20432;-79
2022/04/10 14:22:55;;;;;;;2.70;2.50;;;;;;;;;;7373782;19;20420;-79
2022/04/10 14:25:29;;;;;;;4.13;2.93;;;;;;;;;;7373047;19;20402;-79
2022/04/10 14:28:01;;;;;;;4.63;2.60;;;;;;;;;;7373881;19;20408;-79
2022/04/10 14:30:33;;;;;;;4.90;3.03;;;;;;;;;;7375821;19;20486;-78
2022/04/10 14:33:08;;;;;;;4.27;2.70;;;;;;;;;;7371158;19;20531;-78
2022/04/10 14:35:40;;;;;;;5.20;2.30;;;;;;;;;;7371488;19;20407;-78
2022/04/10 14:38:14;;;;;;;3.17;2.20;;;;;;;;;;7377573;19;20408;-78
2022/04/10 14:40:46;;;;;;;2.80;2.33;;;;;;;;;;7373857;19;20448;-79
2022/04/10 14:43:18;;;;;;;6.67;3.10;;;;;;;;;;7374237;19;20408;-79
2022/04/10 14:45:50;;;;;;;2.80;2.10;;;;;;;;;;7376303;19;20439;-79
2022/04/10 14:48:22;;;;;;;4.23;2.23;;;;;;;;;;7373596;19;20416;-80
2022/04/10 14:50:56;;;;;;;2.97;2.43;;;;;;;;;;7374723;19;21386;-78
2022/04/10 14:53:26;;;;;;;4.37;2.60;;;;;;;;;;7374336;19;20411;-78
2022/04/10 14:55:58;;;;;;;3.10;2.30;;;;;;;;;;7375573;19;20419;-80
2022/04/10 14:58:30;;;;;;;2.63;2.00;;;;;;;;;;7376344;19;20446;-80
2022/04/10 15:01:02;;;;;;;3.60;2.63;;;;;;;;;;7376077;19;20400;-80
2022/04/10 15:03:37;;;;;;;2.70;2.10;;;;;;;;;;7376473;19;20518;-80
2022/04/10 15:06:09;;;;;;;2.60;2.20;;;;;;;;;;7372798;19;20475;-78
2022/04/10 15:08:38;;;;;;;7.90;2.73;;;;;;;;;;7374246;19;20438;-78
2022/04/10 15:11:08;;;;;;;5.20;3.03;;;;;;;;;;7371832;19;20444;-78
2022/04/10 15:13:42;;;;;;;3.60;2.27;;;;;;;;;;7374731;19;20428;-78
2022/04/10 15:16:14;;;;;;;3.50;2.50;;;;;;;;;;7373015;19;20417;-79
2022/04/10 15:18:46;;;;;;;4.30;2.40;;;;;;;;;;7375341;19;20424;-79
2022/04/10 15:21:16;;;;;;;7.50;5.40;;;;;;;;;;7371170;19;20416;-79
2022/04/10 15:23:52;;;;;;;5.17;4.20;;;;;;;;;;7380921;19;20411;-78
2022/04/10 15:26:22;;;;;;;6.70;3.10;;;;;;;;;;7379231;19;21271;-78
2022/04/10 15:28:53;;;;;;;4.57;3.57;;;;;;;;;;7380407;19;20411;-78
2022/04/10 15:31:26;;;;;;;4.00;3.13;;;;;;;;;;7375291;19;20486;-79
2022/04/10 15:34:03;;;;;;;4.07;3.30;;;;;;;;;;7380251;19;20502;-79
2022/04/10 15:36:35;;;;;;;3.40;2.87;;;;;;;;;;7378386;19;20419;-78
2022/04/10 15:39:04;;;;;;;3.97;3.03;;;;;;;;;;7381162;19;21074;-78
2022/04/10 15:41:43;;;;;;;4.47;3.40;;;;;;;;;;7378626;19;20420;-80
2022/04/10 15:44:13;;;;;;;4.40;3.27;;;;;;;;;;7378973;19;20374;-79
2022/04/10 15:46:43;;;;;;;5.90;3.60;;;;;;;;;;7376603;19;20407;-79